sensor_id;sensor_type;location;lat;lon;timestamp;pressure;altitude;pressure_sealevel;temperature;humidity
39265;BME280;42646;51.910;7.724;2023-02-22T00:00:27;100956.28;;;8.54;100.00
39265;BME280;42646;51.910;7.724;2023-02-22T00:03:09;100961.69;;;8.52;100.00
39265;BME280;42646;51.910;7.724;2023-02-22T00:05:38;100951.94;;;8.53;100.00
39265;BME280;42646;51.910;7.724;2023-02-22T00:08:06;100945.91;;;8.51;100.00
39265;BME280;42646;51.910;7.724;2023-02-22T00:10:37;100941.56;;;8.50;100.00
39265;BME280;42646;51.910;7.724;2023-02-22T00:13:07;100942.53;;;8.49;100.00
39265;BME280;42646;51.910;7.724;2023-02-22T00:15:35;100941.69;;;8.48;100.00
39265;BME280;42646;51.910;7.724;2023-02-22T00:18:11;100935.56;;;8.48;100.00
39265;BME280;42646;51.910;7.724;2023-02-22T00:20:39;100937.31;;;8.47;100.00
39265;BME280;42646;51.910;7.724;2023-02-22T00:23:13;100934.81;;;8.46;100.00
39265;BME280;42646;51.910;7.724;2023-02-22T00:25:43;100935.78;;;8.45;100.00
39265;BME280;42646;51.910;7.724;2023-02-22T00:28:11;100934.22;;;8.42;100.00
39265;BME280;42646;51.910;7.724;2023-02-22T00:30:40;100930.69;;;8.42;100.00
39265;BME280;42646;51.910;7.724;2023-02-22T00:33:10;100931.78;;;8.39;100.00
39265;BME280;42646;51.910;7.724;2023-02-22T00:35:41;100927.44;;;8.38;100.00
39265;BME280;42646;51.910;7.724;2023-02-22T00:38:12;100930.22;;;8.37;100.00
39265;BME280;42646;51.910;7.724;2023-02-22T00:40:46;100920.66;;;8.34;100.00
39265;BME280;42646;51.910;7.724;2023-02-22T00:43:15;100931.25;;;8.34;100.00
39265;BME280;42646;51.910;7.724;2023-02-22T00:45:43;100925.09;;;8.34;100.00
39265;BME280;42646;51.910;7.724;2023-02-22T00:48:11;100934.03;;;8.33;100.00
39265;BME280;42646;51.910;7.724;2023-02-22T00:50:39;100924.41;;;8.32;100.00
39265;BME280;42646;51.910;7.724;2023-02-22T00:53:07;100921.97;;;8.28;100.00
39265;BME280;42646;51.910;7.724;2023-02-22T00:55:37;100910.66;;;8.26;100.00
39265;BME280;42646;51.910;7.724;2023-02-22T00:58:07;100898.56;;;8.22;100.00
39265;BME280;42646;51.910;7.724;2023-02-22T01:00:37;100910.28;;;8.20;100.00
39265;BME280;42646;51.910;7.724;2023-02-22T01:03:08;100907.00;;;8.16;100.00
39265;BME280;42646;51.910;7.724;2023-02-22T01:05:36;100903.63;;;8.14;100.00
39265;BME280;42646;51.910;7.724;2023-02-22T01:08:05;100900.34;;;8.11;100.00
39265;BME280;42646;51.910;7.724;2023-02-22T01:10:36;100901.44;;;8.08;100.00
39265;BME280;42646;51.910;7.724;2023-02-22T01:13:07;100893.72;;;8.05;100.00
39265;BME280;42646;51.910;7.724;2023-02-22T01:15:40;100893.97;;;8.02;100.00
39265;BME280;42646;51.910;7.724;2023-02-22T01:18:09;100886.22;;;7.99;100.00
39265;BME280;42646;51.910;7.724;2023-02-22T01:20:39;100886.56;;;7.94;100.00
39265;BME280;42646;51.910;7.724;2023-02-22T01:23:08;100886.81;;;7.91;100.00
39265;BME280;42646;51.910;7.724;2023-02-22T01:25:36;100884.38;;;7.88;100.00
39265;BME280;42646;51.910;7.724;2023-02-22T01:28:08;100879.47;;;7.84;100.00
39265;BME280;42646;51.910;7.724;2023-02-22T01:30:36;100883.16;;;7.81;100.00
39265;BME280;42646;51.910;7.724;2023-02-22T01:33:05;100875.56;;;7.76;100.00
39265;BME280;42646;51.910;7.724;2023-02-22T01:35:35;100876.63;;;7.74;100.00
39265;BME280;42646;51.910;7.724;2023-02-22T01:38:04;100875.94;;;7.72;100.00
39265;BME280;42646;51.910;7.724;2023-02-22T01:40:38;100877.81;;;7.70;100.00
39265;BME280;42646;51.910;7.724;2023-02-22T01:43:18;100880.59;;;7.68;100.00
39265;BME280;42646;51.910;7.724;2023-02-22T01:45:54;100872.66;;;7.68;100.00
39265;BME280;42646;51.910;7.724;2023-02-22T01:48:35;100866.28;;;7.71;100.00
39265;BME280;42646;51.910;7.724;2023-02-22T01:51:08;100854.00;;;7.70;100.00
39265;BME280;42646;51.910;7.724;2023-02-22T01:53:42;100858.94;;;7.74;100.00
39265;BME280;42646;51.910;7.724;2023-02-22T01:56:13;100856.09;;;7.78;100.00
39265;BME280;42646;51.910;7.724;2023-02-22T01:58:45;100856.91;;;7.78;100.00
39265;BME280;42646;51.910;7.724;2023-02-22T02:01:17;100853.19;;;7.81;100.00
39265;BME280;42646;51.910;7.724;2023-02-22T02:03:46;100850.41;;;7.82;100.00
39265;BME280;42646;51.910;7.724;2023-02-22T02:06:18;100851.63;;;7.78;100.00
39265;BME280;42646;51.910;7.724;2023-02-22T02:08:51;100854.28;;;7.78;100.00
39265;BME280;42646;51.910;7.724;2023-02-22T02:11:23;100857.75;;;7.79;100.00
39265;BME280;42646;51.910;7.724;2023-02-22T02:13:55;100854.63;;;7.73;100.00
39265;BME280;42646;51.910;7.724;2023-02-22T02:16:31;100849.53;;;7.70;100.00
39265;BME280;42646;51.910;7.724;2023-02-22T02:19:02;100845.31;;;7.68;100.00
39265;BME280;42646;51.910;7.724;2023-02-22T02:27:52;100849.06;;;7.76;100.00
39265;BME280;42646;51.910;7.724;2023-02-22T02:31:17;100838.72;;;7.73;100.00
39265;BME280;42646;51.910;7.724;2023-02-22T02:33:55;100837.25;;;7.69;100.00
39265;BME280;42646;51.910;7.724;2023-02-22T02:36:29;100840.03;;;7.68;100.00
39265;BME280;42646;51.910;7.724;2023-02-22T02:39:04;100832.94;;;7.68;100.00
39265;BME280;42646;51.910;7.724;2023-02-22T02:41:38;100830.16;;;7.70;100.00
39265;BME280;42646;51.910;7.724;2023-02-22T02:44:10;100836.19;;;7.72;100.00
39265;BME280;42646;51.910;7.724;2023-02-22T02:46:44;100825.34;;;7.75;100.00
39265;BME280;42646;51.910;7.724;2023-02-22T02:49:23;100828.13;;;7.73;100.00
39265;BME280;42646;51.910;7.724;2023-02-22T02:51:55;100822.22;;;7.70;100.00
39265;BME280;42646;51.910;7.724;2023-02-22T02:54:26;100818.50;;;7.72;100.00
39265;BME280;42646;51.910;7.724;2023-02-22T02:56:55;100816.06;;;7.69;100.00
39265;BME280;42646;51.910;7.724;2023-02-22T02:59:26;100818.00;;;7.67;100.00
39265;BME280;42646;51.910;7.724;2023-02-22T03:02:04;100817.88;;;7.69;100.00
39265;BME280;42646;51.910;7.724;2023-02-22T03:04:47;100806.78;;;7.64;100.00
39265;BME280;42646;51.910;7.724;2023-02-22T03:07:52;100808.59;;;7.63;100.00
39265;BME280;42646;51.910;7.724;2023-02-22T03:10:37;100802.59;;;7.61;100.00
39265;BME280;42646;51.910;7.724;2023-02-22T03:13:13;100798.47;;;7.57;100.00
39265;BME280;42646;51.910;7.724;2023-02-22T03:15:50;100791.38;;;7.58;100.00
39265;BME280;42646;51.910;7.724;2023-02-22T03:18:24;100794.97;;;7.57;100.00
39265;BME280;42646;51.910;7.724;2023-02-22T03:21:00;100790.78;;;7.54;100.00
39265;BME280;42646;51.910;7.724;2023-02-22T03:23:38;100791.63;;;7.55;100.00
39265;BME280;42646;51.910;7.724;2023-02-22T03:26:13;100787.38;;;7.52;100.00
39265;BME280;42646;51.910;7.724;2023-02-22T03:28:42;100781.25;;;7.52;100.00
39265;BME280;42646;51.910;7.724;2023-02-22T03:31:20;100783.78;;;7.53;100.00
39265;BME280;42646;51.910;7.724;2023-02-22T03:33:53;100769.69;;;7.53;100.00
39265;BME280;42646;51.910;7.724;2023-02-22T03:36:28;100775.00;;;7.64;100.00
39265;BME280;42646;51.910;7.724;2023-02-22T03:38:59;100768.00;;;7.52;100.00
39265;BME280;42646;51.910;7.724;2023-02-22T03:41:32;100775.34;;;7.48;100.00
39265;BME280;42646;51.910;7.724;2023-02-22T03:44:05;100771.13;;;7.45;100.00
39265;BME280;42646;51.910;7.724;2023-02-22T03:46:41;100770.16;;;7.46;100.00
39265;BME280;42646;51.910;7.724;2023-02-22T03:49:13;100768.59;;;7.44;100.00
39265;BME280;42646;51.910;7.724;2023-02-22T03:51:45;100766.41;;;7.38;100.00
39265;BME280;42646;51.910;7.724;2023-02-22T03:54:14;100766.91;;;7.43;100.00
39265;BME280;42646;51.910;7.724;2023-02-22T03:56:50;100767.25;;;7.38;100.00
39265;BME280;42646;51.910;7.724;2023-02-22T03:59:45;100767.19;;;7.27;100.00
39265;BME280;42646;51.910;7.724;2023-02-22T04:02:13;100769.25;;;7.23;100.00
39265;BME280;42646;51.910;7.724;2023-02-22T04:04:44;100768.16;;;7.26;100.00
39265;BME280;42646;51.910;7.724;2023-02-22T04:07:14;100762.94;;;7.13;100.00
39265;BME280;42646;51.910;7.724;2023-02-22T04:09:42;100761.84;;;7.16;100.00
39265;BME280;42646;51.910;7.724;2023-02-22T04:12:10;100760.75;;;7.07;100.00
39265;BME280;42646;51.910;7.724;2023-02-22T04:14:53;100752.19;;;7.04;100.00
39265;BME280;42646;51.910;7.724;2023-02-22T04:17:22;100750.38;;;7.04;100.00
39265;BME280;42646;51.910;7.724;2023-02-22T04:19:50;100755.47;;;7.07;100.00
39265;BME280;42646;51.910;7.724;2023-02-22T04:22:59;100753.47;;;6.98;100.00
39265;BME280;42646;51.910;7.724;2023-02-22T04:25:28;100746.63;;;6.95;100.00
39265;BME280;42646;51.910;7.724;2023-02-22T04:27:56;100749.94;;;6.86;100.00
39265;BME280;42646;51.910;7.724;2023-02-22T04:30:39;100750.25;;;6.82;100.00
39265;BME280;42646;51.910;7.724;2023-02-22T04:33:37;100753.88;;;6.81;100.00
39265;BME280;42646;51.910;7.724;2023-02-22T04:36:09;100739.81;;;6.80;100.00
39265;BME280;42646;51.910;7.724;2023-02-22T04:38:42;100750.06;;;6.85;100.00
39265;BME280;42646;51.910;7.724;2023-02-22T04:41:11;100749.34;;;6.83;100.00
39265;BME280;42646;51.910;7.724;2023-02-22T04:43:42;100745.22;;;6.79;100.00
39265;BME280;42646;51.910;7.724;2023-02-22T04:46:18;100743.53;;;6.78;100.00
39265;BME280;42646;51.910;7.724;2023-02-22T04:48:46;100744.50;;;6.77;100.00
39265;BME280;42646;51.910;7.724;2023-02-22T04:51:19;100744.50;;;6.77;100.00
39265;BME280;42646;51.910;7.724;2023-02-22T04:54:00;100746.28;;;6.76;100.00
39265;BME280;42646;51.910;7.724;2023-02-22T04:56:31;100742.69;;;6.77;100.00
39265;BME280;42646;51.910;7.724;2023-02-22T04:59:24;100741.53;;;6.68;100.00
39265;BME280;42646;51.910;7.724;2023-02-22T05:01:55;100743.34;;;6.68;100.00
39265;BME280;42646;51.910;7.724;2023-02-22T05:04:51;100742.75;;;6.64;100.00
39265;BME280;42646;51.910;7.724;2023-02-22T05:07:19;100736.59;;;6.64;100.00
39265;BME280;42646;51.910;7.724;2023-02-22T05:09:48;100740.63;;;6.57;100.00
39265;BME280;42646;51.910;7.724;2023-02-22T05:12:16;100736.53;;;6.53;100.00
39265;BME280;42646;51.910;7.724;2023-02-22T05:14:44;100727.84;;;6.51;100.00
39265;BME280;42646;51.910;7.724;2023-02-22T05:17:11;100728.81;;;6.50;100.00
39265;BME280;42646;51.910;7.724;2023-02-22T05:19:40;100736.03;;;6.48;100.00
39265;BME280;42646;51.910;7.724;2023-02-22T05:22:08;100734.09;;;6.50;100.00
39265;BME280;42646;51.910;7.724;2023-02-22T05:24:36;100736.03;;;6.48;100.00
39265;BME280;42646;51.910;7.724;2023-02-22T05:27:05;100735.19;;;6.47;100.00
39265;BME280;42646;51.910;7.724;2023-02-22T05:29:34;100740.47;;;6.47;100.00
39265;BME280;42646;51.910;7.724;2023-02-22T05:32:04;100730.09;;;6.44;100.00
39265;BME280;42646;51.910;7.724;2023-02-22T05:34:57;100728.19;;;6.46;100.00
39265;BME280;42646;51.910;7.724;2023-02-22T05:37:50;100728.31;;;6.45;100.00
39265;BME280;42646;51.910;7.724;2023-02-22T05:40:25;100726.50;;;6.45;100.00
39265;BME280;42646;51.910;7.724;2023-02-22T05:42:55;100724.63;;;6.47;100.00
39265;BME280;42646;51.910;7.724;2023-02-22T05:45:27;100732.41;;;6.49;100.00
39265;BME280;42646;51.910;7.724;2023-02-22T05:47:55;100727.56;;;6.42;100.00
39265;BME280;42646;51.910;7.724;2023-02-22T05:50:50;100732.97;;;6.41;100.00
39265;BME280;42646;51.910;7.724;2023-02-22T05:53:18;100725.97;;;6.40;100.00
39265;BME280;42646;51.910;7.724;2023-02-22T05:56:12;100724.41;;;6.37;100.00
39265;BME280;42646;51.910;7.724;2023-02-22T05:58:43;100725.38;;;6.36;100.00
39265;BME280;42646;51.910;7.724;2023-02-22T06:01:12;100727.19;;;6.36;100.00
39265;BME280;42646;51.910;7.724;2023-02-22T06:03:40;100728.13;;;6.35;100.00
39265;BME280;42646;51.910;7.724;2023-02-22T06:06:08;100721.88;;;6.36;100.00
39265;BME280;42646;51.910;7.724;2023-02-22T06:08:37;100721.97;;;6.34;100.00
39265;BME280;42646;51.910;7.724;2023-02-22T06:11:05;100722.94;;;6.33;100.00
39265;BME280;42646;51.910;7.724;2023-02-22T06:13:35;100721.25;;;6.32;100.00
39265;BME280;42646;51.910;7.724;2023-02-22T06:16:06;100724.00;;;6.31;100.00
39265;BME280;42646;51.910;7.724;2023-02-22T06:18:36;100715.38;;;6.29;100.00
39265;BME280;42646;51.910;7.724;2023-02-22T06:21:07;100712.81;;;6.27;100.00
39265;BME280;42646;51.910;7.724;2023-02-22T06:23:35;100720.00;;;6.25;100.00
39265;BME280;42646;51.910;7.724;2023-02-22T06:26:03;100714.84;;;6.24;100.00
39265;BME280;42646;51.910;7.724;2023-02-22T06:28:31;100716.84;;;6.20;100.00
39265;BME280;42646;51.910;7.724;2023-02-22T06:30:59;100719.81;;;6.15;100.00
39265;BME280;42646;51.910;7.724;2023-02-22T06:33:28;100712.97;;;6.13;100.00
39265;BME280;42646;51.910;7.724;2023-02-22T06:35:56;100709.16;;;6.04;100.00
39265;BME280;42646;51.910;7.724;2023-02-22T06:38:25;100714.66;;;6.01;100.00
39265;BME280;42646;51.910;7.724;2023-02-22T06:40:53;100716.47;;;6.01;100.00
39265;BME280;42646;51.910;7.724;2023-02-22T06:43:21;100716.56;;;5.99;100.00
39265;BME280;42646;51.910;7.724;2023-02-22T06:45:50;100719.31;;;5.98;100.00
39265;BME280;42646;51.910;7.724;2023-02-22T06:48:19;100720.97;;;5.99;100.00
39265;BME280;42646;51.910;7.724;2023-02-22T06:50:48;100722.91;;;5.97;100.00
39265;BME280;42646;51.910;7.724;2023-02-22T06:53:16;100722.78;;;5.98;100.00
39265;BME280;42646;51.910;7.724;2023-02-22T06:55:44;100728.06;;;5.98;100.00
39265;BME280;42646;51.910;7.724;2023-02-22T06:58:14;100722.78;;;5.98;100.00
39265;BME280;42646;51.910;7.724;2023-02-22T07:00:42;100726.63;;;5.94;100.00
39265;BME280;42646;51.910;7.724;2023-02-22T07:03:11;100718.69;;;5.94;100.00
39265;BME280;42646;51.910;7.724;2023-02-22T07:05:39;100718.56;;;5.96;100.00
39265;BME280;42646;51.910;7.724;2023-02-22T07:08:09;100723.59;;;5.86;100.00
39265;BME280;42646;51.910;7.724;2023-02-22T07:10:38;100717.41;;;5.87;100.00
39265;BME280;42646;51.910;7.724;2023-02-22T07:13:06;100719.72;;;5.79;100.00
39265;BME280;42646;51.910;7.724;2023-02-22T07:15:35;100716.75;;;5.71;100.00
39265;BME280;42646;51.910;7.724;2023-02-22T07:18:03;100723.19;;;5.67;100.00
39265;BME280;42646;51.910;7.724;2023-02-22T07:20:31;100717.06;;;5.66;100.00
39265;BME280;42646;51.910;7.724;2023-02-22T07:22:59;100716.44;;;5.62;100.00
39265;BME280;42646;51.910;7.724;2023-02-22T07:25:29;100721.63;;;5.64;100.00
39265;BME280;42646;51.910;7.724;2023-02-22T07:27:57;100719.41;;;5.58;100.00
39265;BME280;42646;51.910;7.724;2023-02-22T07:30:27;100719.59;;;5.55;100.00
39265;BME280;42646;51.910;7.724;2023-02-22T07:33:01;100723.09;;;5.55;100.00
39265;BME280;42646;51.910;7.724;2023-02-22T07:35:31;100718.56;;;5.57;100.00
39265;BME280;42646;51.910;7.724;2023-02-22T07:38:02;100708.94;;;5.56;100.00
39265;BME280;42646;51.910;7.724;2023-02-22T07:40:34;100722.34;;;5.53;100.00
39265;BME280;42646;51.910;7.724;2023-02-22T07:43:13;100721.28;;;5.56;100.00
39265;BME280;42646;51.910;7.724;2023-02-22T07:45:42;100716.13;;;5.54;100.00
39265;BME280;42646;51.910;7.724;2023-02-22T07:48:12;100722.97;;;5.57;100.00
39265;BME280;42646;51.910;7.724;2023-02-22T07:50:45;100725.41;;;5.60;100.00
39265;BME280;42646;51.910;7.724;2023-02-22T07:53:14;100721.63;;;5.64;100.00
39265;BME280;42646;51.910;7.724;2023-02-22T07:55:45;100719.91;;;5.63;100.00
39265;BME280;42646;51.910;7.724;2023-02-22T07:58:20;100715.50;;;5.63;100.00
39265;BME280;42646;51.910;7.724;2023-02-22T08:00:48;100713.72;;;5.64;100.00
39265;BME280;42646;51.910;7.724;2023-02-22T08:03:18;100713.28;;;5.57;100.00
39265;BME280;42646;51.910;7.724;2023-02-22T08:05:49;100710.72;;;5.56;100.00
39265;BME280;42646;51.910;7.724;2023-02-22T08:08:18;100715.81;;;5.59;100.00
39265;BME280;42646;51.910;7.724;2023-02-22T08:10:49;100704.94;;;5.63;100.00
39265;BME280;42646;51.910;7.724;2023-02-22T08:13:17;100711.78;;;5.66;100.00
39265;BME280;42646;51.910;7.724;2023-02-22T08:15:45;100709.28;;;5.65;100.00
39265;BME280;42646;51.910;7.724;2023-02-22T08:18:16;100703.34;;;5.61;100.00
39265;BME280;42646;51.910;7.724;2023-02-22T08:20:47;100704.84;;;5.65;100.00
39265;BME280;42646;51.910;7.724;2023-02-22T08:23:17;100700.50;;;5.64;100.00
39265;BME280;42646;51.910;7.724;2023-02-22T08:25:45;100699.56;;;5.65;100.00
39265;BME280;42646;51.910;7.724;2023-02-22T08:28:16;100696.91;;;5.65;100.00
39265;BME280;42646;51.910;7.724;2023-02-22T08:30:45;100697.75;;;5.66;100.00
39265;BME280;42646;51.910;7.724;2023-02-22T08:33:14;100696.81;;;5.67;100.00
39265;BME280;42646;51.910;7.724;2023-02-22T08:35:45;100694.88;;;5.69;100.00
39265;BME280;42646;51.910;7.724;2023-02-22T08:38:17;100691.41;;;5.68;100.00
39265;BME280;42646;51.910;7.724;2023-02-22T08:40:47;100692.25;;;5.69;100.00
39265;BME280;42646;51.910;7.724;2023-02-22T08:43:16;100681.50;;;5.72;100.00
39265;BME280;42646;51.910;7.724;2023-02-22T08:45:44;100684.13;;;5.72;100.00
39265;BME280;42646;51.910;7.724;2023-02-22T08:48:12;100682.63;;;5.80;100.00
39265;BME280;42646;51.910;7.724;2023-02-22T08:50:41;100681.06;;;5.78;100.00
39265;BME280;42646;51.910;7.724;2023-02-22T08:53:10;100678.19;;;5.81;100.00
39265;BME280;42646;51.910;7.724;2023-02-22T08:55:40;100675.16;;;5.87;100.00
39265;BME280;42646;51.910;7.724;2023-02-22T08:58:08;100676.72;;;5.89;100.00
39265;BME280;42646;51.910;7.724;2023-02-22T09:00:38;100674.00;;;5.91;100.00
39265;BME280;42646;51.910;7.724;2023-02-22T09:03:08;100674.94;;;6.03;100.00
39265;BME280;42646;51.910;7.724;2023-02-22T09:05:39;100670.63;;;6.02;100.00
39265;BME280;42646;51.910;7.724;2023-02-22T09:08:08;100662.13;;;6.09;100.00
39265;BME280;42646;51.910;7.724;2023-02-22T09:10:38;100665.19;;;6.16;100.00
39265;BME280;42646;51.910;7.724;2023-02-22T09:13:06;100664.97;;;6.19;100.00
39265;BME280;42646;51.910;7.724;2023-02-22T09:15:59;100665.09;;;6.18;100.00
39265;BME280;42646;51.910;7.724;2023-02-22T09:18:27;100663.81;;;6.23;100.00
39265;BME280;42646;51.910;7.724;2023-02-22T09:21:10;100659.75;;;6.30;100.00
39265;BME280;42646;51.910;7.724;2023-02-22T09:23:38;100652.34;;;6.35;100.00
39265;BME280;42646;51.910;7.724;2023-02-22T09:26:08;100645.03;;;6.39;100.00
39265;BME280;42646;51.910;7.724;2023-02-22T09:28:36;100648.38;;;6.54;100.00
39265;BME280;42646;51.910;7.724;2023-02-22T09:31:06;100645.59;;;6.55;100.00
39265;BME280;42646;51.910;7.724;2023-02-22T09:33:34;100651.06;;;6.65;100.00
39265;BME280;42646;51.910;7.724;2023-02-22T09:36:03;100649.25;;;6.65;100.00
39265;BME280;42646;51.910;7.724;2023-02-22T09:38:32;100645.38;;;6.82;100.00
39265;BME280;42646;51.910;7.724;2023-02-22T09:41:08;100641.59;;;6.74;100.00
39265;BME280;42646;51.910;7.724;2023-02-22T09:43:44;100650.03;;;6.79;100.00
39265;BME280;42646;51.910;7.724;2023-02-22T09:46:26;100642.22;;;6.77;100.00
39265;BME280;42646;51.910;7.724;2023-02-22T09:49:02;100642.59;;;6.84;100.00
39265;BME280;42646;51.910;7.724;2023-02-22T09:51:38;100640.22;;;6.92;100.00
39265;BME280;42646;51.910;7.724;2023-02-22T09:54:16;100638.31;;;6.94;100.00
39265;BME280;42646;51.910;7.724;2023-02-22T09:56:47;100627.50;;;6.97;100.00
39265;BME280;42646;51.910;7.724;2023-02-22T09:59:22;100635.81;;;7.04;100.00
39265;BME280;42646;51.910;7.724;2023-02-22T10:01:58;100635.59;;;7.07;100.00
39265;BME280;42646;51.910;7.724;2023-02-22T10:04:38;100626.72;;;7.19;100.00
39265;BME280;42646;51.910;7.724;2023-02-22T10:07:15;100627.81;;;7.28;100.00
39265;BME280;42646;51.910;7.724;2023-02-22T10:09:46;100627.94;;;7.37;100.00
39265;BME280;42646;51.910;7.724;2023-02-22T10:12:47;100630.84;;;7.45;100.00
39265;BME280;42646;51.910;7.724;2023-02-22T10:15:47;100627.63;;;7.53;100.00
39265;BME280;42646;51.910;7.724;2023-02-22T10:18:31;100629.03;;;7.57;100.00
39265;BME280;42646;51.910;7.724;2023-02-22T10:21:07;100621.72;;;7.61;100.00
39265;BME280;42646;51.910;7.724;2023-02-22T10:36:15;100611.41;;;8.12;100.00
39265;BME280;42646;51.910;7.724;2023-02-22T10:38:49;100611.53;;;8.22;100.00
39265;BME280;42646;51.910;7.724;2023-02-22T10:41:23;100612.69;;;8.29;100.00
39265;BME280;42646;51.910;7.724;2023-02-22T10:43:53;100608.00;;;8.33;100.00
39265;BME280;42646;51.910;7.724;2023-02-22T10:46:23;100597.25;;;8.45;100.00
39265;BME280;42646;51.910;7.724;2023-02-22T10:48:55;100600.38;;;8.50;100.00
39265;BME280;42646;51.910;7.724;2023-02-22T10:51:27;100601.78;;;8.66;100.00
39265;BME280;42646;51.910;7.724;2023-02-22T10:54:05;100590.38;;;8.75;100.00
39265;BME280;42646;51.910;7.724;2023-02-22T10:56:45;100591.00;;;8.78;100.00
39265;BME280;42646;51.910;7.724;2023-02-22T10:59:26;100586.47;;;8.90;100.00
39265;BME280;42646;51.910;7.724;2023-02-22T11:01:54;100585.94;;;8.96;100.00
39265;BME280;42646;51.910;7.724;2023-02-22T11:04:26;100577.31;;;9.04;100.00
39265;BME280;42646;51.910;7.724;2023-02-22T11:07:21;100581.34;;;9.19;100.00
39265;BME280;42646;51.910;7.724;2023-02-22T11:09:51;100581.06;;;9.22;100.00
39265;BME280;42646;51.910;7.724;2023-02-22T11:20:43;100581.06;;;9.53;100.00
39265;BME280;42646;51.910;7.724;2023-02-22T11:23:22;100573.41;;;9.59;100.00
39265;BME280;42646;51.910;7.724;2023-02-22T11:25:50;100579.88;;;9.67;100.00
39265;BME280;42646;51.910;7.724;2023-02-22T11:28:32;100571.53;;;9.81;100.00
39265;BME280;42646;51.910;7.724;2023-02-22T11:31:10;100565.94;;;9.84;100.00
39265;BME280;42646;51.910;7.724;2023-02-22T11:33:52;100558.81;;;9.94;100.00
39265;BME280;42646;51.910;7.724;2023-02-22T11:36:30;100564.44;;;10.01;100.00
39265;BME280;42646;51.910;7.724;2023-02-22T11:39:04;100558.16;;;10.11;100.00
39265;BME280;42646;51.910;7.724;2023-02-22T11:41:36;100554.69;;;10.21;100.00
39265;BME280;42646;51.910;7.724;2023-02-22T11:44:21;100549.94;;;10.24;100.00
39265;BME280;42646;51.910;7.724;2023-02-22T11:46:50;100554.72;;;10.30;100.00
39265;BME280;42646;51.910;7.724;2023-02-22T11:49:23;100550.25;;;10.40;100.00
39265;BME280;42646;51.910;7.724;2023-02-22T11:52:17;100540.47;;;10.51;100.00
39265;BME280;42646;51.910;7.724;2023-02-22T11:54:57;100533.28;;;10.61;100.00
39265;BME280;42646;51.910;7.724;2023-02-22T11:57:38;100536.66;;;10.63;100.00
39265;BME280;42646;51.910;7.724;2023-02-22T12:00:20;100526.81;;;10.73;100.00
39265;BME280;42646;51.910;7.724;2023-02-22T12:03:22;100524.88;;;10.75;100.00
39265;BME280;42646;51.910;7.724;2023-02-22T12:06:10;100518.84;;;10.83;100.00
39265;BME280;42646;51.910;7.724;2023-02-22T12:08:56;100511.69;;;10.93;100.00
39265;BME280;42646;51.910;7.724;2023-02-22T12:12:03;100512.78;;;11.00;100.00
39265;BME280;42646;51.910;7.724;2023-02-22T12:14:43;100510.78;;;11.02;100.00
39265;BME280;42646;51.910;7.724;2023-02-22T12:17:36;100513.88;;;11.07;100.00
39265;BME280;42646;51.910;7.724;2023-02-22T12:20:24;100510.09;;;11.10;100.00
39265;BME280;42646;51.910;7.724;2023-02-22T12:23:11;100510.63;;;11.13;100.00
39265;BME280;42646;51.910;7.724;2023-02-22T12:25:53;100513.69;;;11.18;100.00
39265;BME280;42646;51.910;7.724;2023-02-22T12:28:31;100506.78;;;11.26;100.00
39265;BME280;42646;51.910;7.724;2023-02-22T12:31:13;100495.88;;;11.29;100.00
39265;BME280;42646;51.910;7.724;2023-02-22T12:33:48;100496.25;;;11.34;100.00
39265;BME280;42646;51.910;7.724;2023-02-22T12:36:23;100490.47;;;11.38;100.00
39265;BME280;42646;51.910;7.724;2023-02-22T12:38:57;100499.69;;;11.44;100.00
39265;BME280;42646;51.910;7.724;2023-02-22T12:41:37;100492.50;;;11.54;100.00
39265;BME280;42646;51.910;7.724;2023-02-22T12:44:18;100494.88;;;11.57;100.00
39265;BME280;42646;51.910;7.724;2023-02-22T12:46:50;100490.09;;;11.61;100.00
39265;BME280;42646;51.910;7.724;2023-02-22T12:49:25;100485.25;;;11.74;100.00
39265;BME280;42646;51.910;7.724;2023-02-22T12:52:02;100488.28;;;11.79;100.00
39265;BME280;42646;51.910;7.724;2023-02-22T12:54:58;100483.22;;;11.86;100.00
39265;BME280;42646;51.910;7.724;2023-02-22T12:57:58;100484.44;;;11.91;100.00
39265;BME280;42646;51.910;7.724;2023-02-22T13:00:35;100480.88;;;12.00;99.58
39265;BME280;42646;51.910;7.724;2023-02-22T13:03:26;100476.63;;;12.08;97.80
39265;BME280;42646;51.910;7.724;2023-02-22T13:06:13;100483.94;;;12.06;97.75
39265;BME280;42646;51.910;7.724;2023-02-22T13:08:55;100470.16;;;12.10;98.96
39265;BME280;42646;51.910;7.724;2023-02-22T13:11:29;100467.38;;;12.20;98.68
39265;BME280;42646;51.910;7.724;2023-02-22T13:14:12;100476.38;;;12.19;97.80
39265;BME280;42646;51.910;7.724;2023-02-22T13:16:48;100467.59;;;12.26;97.84
39265;BME280;42646;51.910;7.724;2023-02-22T13:19:35;100467.47;;;12.28;96.81
39265;BME280;42646;51.910;7.724;2023-02-22T13:22:08;100467.00;;;12.33;95.18
39265;BME280;42646;51.910;7.724;2023-02-22T13:24:45;100463.34;;;12.34;93.73
39265;BME280;42646;51.910;7.724;2023-02-22T13:27:18;100464.69;;;12.38;90.78
39265;BME280;42646;51.910;7.724;2023-02-22T13:29:51;100467.25;;;12.39;90.13
39265;BME280;42646;51.910;7.724;2023-02-22T13:32:35;100467.47;;;12.46;89.69
39265;BME280;42646;51.910;7.724;2023-02-22T13:35:29;100458.28;;;12.48;89.76
39265;BME280;42646;51.910;7.724;2023-02-22T13:38:15;100455.63;;;12.48;90.58
39265;BME280;42646;51.910;7.724;2023-02-22T13:41:00;100452.31;;;12.54;90.36
39265;BME280;42646;51.910;7.724;2023-02-22T13:43:45;100453.38;;;12.62;89.75
39265;BME280;42646;51.910;7.724;2023-02-22T13:46:57;100439.91;;;12.63;89.54
39265;BME280;42646;51.910;7.724;2023-02-22T13:49:47;100449.94;;;12.69;89.58
39265;BME280;42646;51.910;7.724;2023-02-22T13:52:20;100450.91;;;12.68;88.80